Latest Coastal Weather Observations for Troughton Island

IDW60701

Issued at 5:41 pm WST Thursday 2 April 2015 (issued every 10 minutes, with the page automatically refreshed every 10 minutes)

About coastal observations | Map of coastal stations | Coastal observations for WA | Marine services | Other Formats
Station Details ID: 001007 Name: TROUGHTON ISLAND Lat: -13.75 Lon: 126.15 Height: 6.0 m
Data from the previous 72 hours. | See also: Recent months at Troughton Island
Date/Time
WST
Temp

°C
Wind Pressure Rain
since 9am
mm
Weather Cloud Vis
km
Sea
Height
m
Swell
Dir
 
Speed
knots
Gust
knots
hPa Trend Height
m
Period
s
Dir
02/05:30pm 30.1 W 8 10 1007.8 - 0.0 - - - - - - -
02/05:00pm 30.6 W 10 11 1007.5 - 0.0 - - - - - - -
02/04:30pm 31.1 WNW 10 12 1006.9 - 0.0 - - - - - - -
02/04:00pm 31.6 W 10 12 1006.9 - 0.0 - - - - - - -
02/03:30pm 31.7 WNW 10 12 1006.8 - 0.0 - - - - - - -
02/03:00pm 31.8 W 10 11 1007.2 - 0.0 - - - - - - -
02/02:30pm 32.4 W 8 10 1007.6 - 0.0 - - - - - - -
02/02:00pm 32.0 W 8 9 1007.9 - 0.0 - - - - - - -
02/01:30pm 32.5 W 8 9 1008.0 - 0.0 - - - - - - -
02/01:00pm 31.7 W 7 8 1008.4 - 0.0 - - - - - - -
02/12:30pm 32.2 W 6 7 1008.9 - 0.0 - - - - - - -
02/12:00pm 31.7 WNW 6 7 1009.2 - 0.0 - - - - - - -
02/11:30am 31.2 WNW 5 6 1009.6 - 0.0 - - - - - - -
02/11:00am 31.4 W 5 6 1010.1 - 0.0 - - - - - - -
02/10:30am 31.3 WSW 4 5 1010.5 - 0.0 - - - - - - -
02/10:00am 31.5 SSW 5 6 1010.7 - 0.0 - - - - - - -
02/09:30am 30.9 SSW 5 6 1010.9 - 0.0 - - - - - - -
02/09:00am 30.9 SSW 7 8 1010.7 - 0.0 - - - - - - -
02/08:30am 30.4 SSW 6 7 1010.8 - 0.0 - - - - - - -
02/08:00am 30.4 S 5 6 1010.8 - 0.0 - - - - - - -
02/07:30am 30.3 SSE 4 5 1010.9 - 0.0 - - - - - - -
02/07:00am 29.5 S 4 6 1010.5 - 0.0 - - - - - - -
02/06:30am 29.0 SSW 7 8 1009.9 - 0.0 - - - - - - -
02/06:00am 28.8 SW 9 11 1009.3 - 0.0 - - - - - - -
02/05:30am 28.6 SW 8 9 1009.2 - 0.0 - - - - - - -
02/05:00am 28.4 WSW 7 8 1009.0 - 0.0 - - - - - - -
02/04:30am 28.4 WSW 6 7 1008.9 - 0.0 - - - - - - -
02/04:00am 28.5 WSW 7 8 1008.9 - 0.0 - - - - - - -
02/03:30am 28.7 WSW 7 9 1008.8 - 0.0 - - - - - - -
02/03:00am 28.8 WSW 10 11 1008.6 - 0.0 - - - - - - -
02/02:30am 28.9 WSW 9 11 1008.8 - 0.0 - - - - - - -
02/02:00am 29.0 WSW 9 11 1008.9 - 0.0 - - - - - - -
02/01:30am 29.0 WSW 9 10 1009.0 - 0.0 - - - - - - -
02/01:00am 29.0 WSW 9 10 1009.1 - 0.0 - - - - - - -
02/12:30am 29.1 WSW 9 11 1009.4 - 0.0 - - - - - - -
02/12:00am 29.2 WSW 10 11 1009.8 - 0.0 - - - - - - -
 
Date/Time
WST
Temp

°C
Wind Pressure Rain
since 9am
mm
Weather Cloud Vis
km
Sea
Height
m
Swell
Dir
 
Speed
knots
Gust
knots
hPa Trend Height
m
Period
s
Dir
01/11:30pm 29.3 WSW 10 11 1010.4 - 0.0 - - - - - - -
01/11:00pm 29.3 WSW 9 11 1010.8 - 0.0 - - - - - - -
01/10:30pm 29.4 WSW 9 11 1011.1 - 0.0 - - - - - - -
01/10:00pm 29.4 WSW 8 9 1011.3 - 0.0 - - - - - - -
01/09:30pm 29.4 WSW 7 8 1011.3 - 0.0 - - - - - - -
01/09:00pm 29.4 W 7 8 1011.0 - 0.0 - - - - - - -
01/08:30pm 29.3 W 5 7 1010.9 - 0.0 - - - - - - -
01/08:00pm 29.4 W 6 7 1010.6 - 0.0 - - - - - - -
01/07:30pm 29.5 W 7 8 1010.4 - 0.0 - - - - - - -
01/07:00pm 29.6 W 7 8 1010.1 - 0.0 - - - - - - -
01/06:30pm 29.8 W 7 8 1009.9 - 0.0 - - - - - - -
01/06:00pm 29.9 W 8 9 1009.6 - 0.0 - - - - - - -
01/05:30pm 30.2 WNW 7 8 1009.2 - 0.0 - - - - - - -
01/05:00pm 30.8 NW 7 9 1008.9 - 0.0 - - - - - - -
01/04:30pm 31.4 WNW 7 9 1008.8 - 0.0 - - - - - - -
01/04:00pm 31.7 W 7 8 1008.9 - 0.0 - - - - - - -
01/03:30pm 31.9 WNW 6 8 1008.7 - 0.0 - - - - - - -
01/03:00pm 32.4 W 6 7 1008.8 - 0.0 - - - - - - -
01/02:30pm 32.5 W 6 7 1009.2 - 0.0 - - - - - - -
01/02:00pm 32.5 W 6 7 1009.6 - 0.0 - - - - - - -
01/01:30pm 32.5 W 5 7 1009.9 - 0.0 - - - - - - -
01/01:00pm 32.1 W 5 7 1010.4 - 0.0 - - - - - - -
01/12:30pm 31.8 W 5 6 1010.9 - 0.0 - - - - - - -
01/12:00pm 31.7 W 4 6 1011.3 - 0.0 - - - - - - -
01/11:30am 31.6 WSW 4 5 1011.8 - 0.0 - - - - - - -
01/11:00am 31.4 W 4 5 1012.3 - 0.0 - - - - - - -
01/10:30am 31.7 WSW 4 5 1012.8 - 0.0 - - - - - - -
01/10:00am 31.5 WSW 4 5 1013.3 - 0.0 - - - - - - -
01/09:30am 31.7 SW 5 6 1013.5 - 0.0 - - - - - - -
01/09:00am 30.9 SW 4 6 1013.5 - 0.0 - - - - - - -
01/08:30am 31.2 SW 5 7 1013.5 - 0.0 - - - - - - -
01/08:00am 30.3 SW 6 7 1013.5 - 0.0 - - - - - - -
01/07:30am 30.2 WSW 6 7 1013.4 - 0.0 - - - - - - -
01/07:00am 29.8 WSW 5 6 1013.1 - 0.0 - - - - - - -
01/06:30am 29.2 SW 5 6 1012.7 - 0.0 - - - - - - -
01/06:00am 28.3 W 6 7 1012.3 - 0.0 - - - - - - -
01/05:30am 28.1 W 6 7 1012.2 - 0.0 - - - - - - -
01/05:00am 28.3 WSW 6 7 1011.9 - 0.0 - - - - - - -
01/04:30am 28.4 WSW 6 7 1011.7 - 0.0 - - - - - - -
01/04:00am 28.3 SW 6 7 1011.5 - 0.0 - - - - - - -
01/03:30am 28.2 WSW 6 7 1011.4 - 0.0 - - - - - - -
01/03:00am 28.2 WSW 6 7 1011.1 - 0.0 - - - - - - -
01/02:30am 28.2 W 7 8 1011.1 - 0.0 - - - - - - -
01/02:00am 28.0 W 6 6 1011.1 - 0.0 - - - - - - -
01/01:30am 27.9 W 5 6 1011.2 - 0.0 - - - - - - -
01/01:00am 27.6 W 4 4 1011.3 - 0.0 - - - - - - -
01/12:30am 27.8 NW 3 3 1011.6 - 0.0 - - - - - - -
01/12:00am 28.1 NNW 3 4 1011.8 - 0.0 - - - - - - -
 
Date/Time
WST
Temp

°C
Wind Pressure Rain
since 9am
mm
Weather Cloud Vis
km
Sea
Height
m
Swell
Dir
 
Speed
knots
Gust
knots
hPa Trend Height
m
Period
s
Dir
31/11:30pm 28.0 WNW 3 4 1012.2 - 0.0 - - - - - - -
31/11:00pm 28.0 WNW 3 4 1012.5 - 0.0 - - - - - - -
31/10:30pm 27.9 NW 3 4 1012.8 - 0.0 - - - - - - -
31/10:00pm 28.1 NW 3 4 1012.9 - 0.0 - - - - - - -
31/09:30pm 28.1 NW 4 5 1012.9 - 0.0 - - - - - - -
31/09:00pm 28.3 N 4 5 1012.7 - 0.0 - - - - - - -
31/08:00pm 28.5 NNW 5 6 1012.4 - 0.0 - - - - - - -
31/07:30pm 28.6 NNW 4 5 1012.2 - 0.0 - - - - - - -
31/07:00pm 29.4 N 3 3 1012.1 - 0.0 - - - - - - -
31/06:30pm 29.4 N 2 3 1011.7 - 0.0 - - - - - - -
31/06:00pm 29.1 NW 4 5 1011.2 - 0.0 - - - - - - -
31/05:30pm 30.1 W 5 6 1011.1 - 0.0 - - - - - - -
31/05:00pm 30.9 WNW 5 7 1011.0 - 0.0 - - - - - - -
31/04:30pm 31.2 WNW 7 9 1010.7 - 0.0 - - - - - - -
31/04:00pm 31.5 W 7 8 1010.6 - 0.0 - - - - - - -
31/03:30pm 31.8 W 7 8 1010.6 - 0.0 - - - - - - -
31/03:00pm 31.8 W 8 9 1010.4 - 0.0 - - - - - - -
31/02:30pm 31.6 W 7 8 1010.5 - 0.0 - - - - - - -
31/02:00pm 31.8 W 6 8 1010.8 - 0.0 - - - - - - -
31/01:30pm 31.8 WSW 6 8 1011.1 - 0.0 - - - - - - -
31/01:00pm 31.8 WSW 7 8 1011.5 - 0.0 - - - - - - -
31/12:30pm 32.1 WSW 7 8 1011.7 - 0.0 - - - - - - -
31/12:00pm 31.5 WSW 6 7 1012.0 - 0.0 - - - - - - -
31/11:30am 31.5 WSW 5 7 1012.7 - 0.0 - - - - - - -
31/11:00am 31.6 SW 5 6 1013.3 - 0.0 - - - - - - -
31/10:30am 31.1 SSW 5 6 1013.8 - 0.0 - - - - - - -
31/10:00am 31.3 SSW 5 7 1014.1 - 0.0 - - - - - - -
31/09:30am 30.7 S 6 8 1014.2 - 0.0 - - - - - - -
31/09:00am 30.3 SSW 7 8 1014.1 - 0.0 - - - - - - -
31/08:30am 30.4 SSW 6 8 1014.3 - 0.0 - - - - - - -
31/08:00am 30.0 SSW 6 7 1014.2 - 0.0 - - - - - - -
31/07:30am 29.6 S 5 6 1014.0 - 0.0 - - - - - - -
31/07:00am 29.2 S 4 5 1013.8 - 0.0 - - - - - - -
31/06:30am 28.5 SSW 4 5 1013.5 - 0.0 - - - - - - -
31/06:00am 27.7 CALM 0 0 1013.2 - 0.0 - - - - - - -
31/05:30am 27.6 CALM 0 0 1012.9 - 0.0 - - - - - - -
31/05:00am 27.7 CALM 0 0 1012.6 - 0.0 - - - - - - -
31/04:00am 27.8 CALM 0 0 1012.0 - 0.0 - - - - - - -
31/03:30am 27.8 CALM 0 0 1011.8 - 0.0 - - - - - - -
31/03:00am 27.8 SSW 3 4 1011.5 - 0.0 - - - - - - -
31/02:30am 27.8 SW 2 3 1011.5 - 0.0 - - - - - - -
31/02:00am 27.8 SW 4 4 1011.6 - 0.0 - - - - - - -
31/01:30am 27.9 SW 4 5 1011.8 - 0.0 - - - - - - -
31/01:00am 27.7 WNW 4 4 1012.0 - 0.0 - - - - - - -
31/12:30am 27.8 NNW 3 4 1012.0 - 0.0 - - - - - - -
31/12:00am 28.3 N 3 5 1012.1 - 0.0 - - - - - - -
 
Date/Time
WST
Temp

°C
Wind Pressure Rain
since 9am
mm
Weather Cloud Vis
km
Sea
Height
m
Swell
Dir
 
Speed
knots
Gust
knots
hPa Trend Height
m
Period
s
Dir
30/11:30pm 28.8 N 4 6 1012.4 - 0.0 - - - - - - -
30/11:00pm 28.7 N 3 4 1013.0 - 0.0 - - - - - - -
30/10:30pm 28.7 N 4 5 1013.2 - 0.0 - - - - - - -
30/10:00pm 28.9 N 5 7 1013.4 - 0.0 - - - - - - -
30/09:30pm 28.7 NNE 5 7 1013.6 - 0.0 - - - - - - -
30/08:30pm 29.0 NNE 7 8 1013.7 - 0.0 - - - - - - -
30/08:00pm 29.1 NNE 5 8 1013.4 - 0.0 - - - - - - -
30/07:30pm 29.3 NNE 6 8 1013.0 - 0.0 - - - - - - -
30/07:00pm 29.4 N 7 9 1012.5 - 0.0 - - - - - - -
30/06:30pm 29.5 N 7 9 1012.0 - 0.0 - - - - - - -
30/06:00pm 29.6 N 6 7 1011.8 - 0.0 - - - - - - -

Other Formats:

Comma delimited format used in spreadsheet applications
http://www.bom.gov.au/fwo/IDW60701/IDW60701.94102.axf

JavaScript Object Notation format (JSON) in row-major order
http://www.bom.gov.au/fwo/IDW60701/IDW60701.94102.json